KBCT/BCT METAR and TAF weather

Enter ICAO airport designator
Station Type Date Time Source
KBCT METAR 2021/01/27 13:53 UTC NOAA

KBCT 271353Z 00000KT 8SM FEW050 24/22 A3008


Station Type Date Time Source
KBCT Decoded METAR 2021/01/27 13:53 UTC NOAA

Boca Raton, Boca Raton Airport, FL, United States (KBCT) 26-22-43N 080-06-28W
Jan 27, 2021 - 08:53 AM EST / 2021.01.27 1353 UTC
Wind: Calm:0
Visibility: 8 mile(s):0
Sky conditions: mostly clear
Temperature: 75 F (24 C)
Dew Point: 71 F (22 C)
Relative Humidity: 88%
Pressure (altimeter): 30.08 in. Hg (1018 hPa)
ob: KBCT 271353Z 00000KT 8SM FEW050 24/22 A3008
cycle: 14

Station Type Date Time Source
KBCT TAF 2020/02/03 18:20 UTC NOAA

TAF KBCT 031720Z 0318/0418 12005KT P6SM SKC
FM040000 VRB03KT P6SM SKC
FM041400 16011KT P6SM FEW030

Example: see airport list